リオデジャネイロ/サントス・デュモン の空港の天気 - METARとTAF

サントス・デュモン空港 ( SBRJ / SDU ) - ブラジル リオデジャネイロ州リオデジャネイロ市
飛行場実況気象(Metar)
観測時間01/19 23:00 BRST (01/20 01:00 UTC)
風向・風速南南西 3m/s
視程9000m
天気現象弱い雨
全天の8割程度の雲 雲底高度 370m
全天を覆う雲 雲底高度 1520m
気温26℃
湿度84%
気圧1015hPa
METARSBRJ 200100Z 21005KT 9000 -RA BKN012 OVC050 26/23 Q1015 RETS
過去の天気等 Google飛行場航空写真 Wunderground天気予報

過去48時間のMETAR

飛行場予報(TAF)
発表時間: 1/19 17:30 BRST (1/19 19:30 UTC)
予報対象時間: 19日22時 BRST ~ 20日10時 BRST
風向・風速南 3m/s
視程8,000m
全天の8割程度の雲 雲底高度 610m
19日22時 BRST ~ 20日4時 BRST に 確率 30% で一時的に
視程3,000m
天気現象雷雨
全天の8割程度の雲 雲底高度 520m
少しの積乱雲 雲底高度 910m
TAF SBRJ 191930Z 2000/2012 18005KT 8000 BKN020 TN24/2008Z TX27/2012Z
PROB30 TEMPO 2000/2006 3000 TSRA BKN017 FEW030CB RMK PGZ